首页
METAR-TAF:

METAR-TAF

机场 :

巴尔的摩/华盛顿瑟古德·马歇尔国际机场

巴爾的摩, 马里兰州, 美国

纬度: 39-10-00N, 经度: 076-41-00W, 海拔: 44米

当前天气观测

该预报发布于51分钟前的18:54 UTC
风速17节,风向西北,有时为30节阵风
温度 16°C
湿度 29%
气压 1008 hPa
能見度: 16.1公里
散云层高于7500英尺

METAR: KBWI 021854Z 31017G30KT 10SM SCT075 16/M02 A2978 RMK AO2 PK WND 30030/1831 SLP085 T01611017

时间: 15:45 (19:45 UTC)

预报

该预报发布于2小时和8分钟前的17:37 UTC
预报有效从02日的 18点(UTC)到 03日的 24点(UTC)
风速20节,风向西北,有时为31节阵风
能見度: 10公里
少量云层高于6000英尺
从 02日的 2200点(UTC)
风速17节,风向西北,有时为26节阵风
能見度: 10公里
少量云层高于5000英尺
从 03日的 0300点(UTC)
风速13节,风向西北
能見度: 10公里
少量云层高于25000英尺
从 03日的 1200点(UTC)
风速13节,风向西北,有时为21节阵风
能見度: 10公里
少量云层高于8000英尺
从 03日的 1600点(UTC)
风速17节,风向北转西北,有时为26节阵风
能見度: 10公里
多云层高于9000英尺
从 03日的 2200点(UTC)
风速14节,风向北转西北
能見度: 10公里
多云层高于5000英尺

TAF: KBWI 021737Z 0218/0324 31020G31KT P6SM FEW060 FM022200 31017G26KT P6SM FEW050 FM030300 32013KT P6SM FEW250 FM031200 31013G21KT P6SM FEW080 FM031600 33017G26KT P6SM BKN090 FM032200 34014KT P6SM BKN050

超过4000个机场的气象观测和天气预报(METAR&TAF报告)。

可查询的气象台以黄色和红色小点在地图上表示。

将鼠标移到小点上方,可查看气象台名称。

然后点击查看天气观测和预报。

如需切换地图:点击带黑十字的绿色按钮放大地图;点击带横线的绿色按钮缩小地图;或者点击绿色箭头查看邻近地区的地图。


METAR-TAF: